createdAt,value
2018-11-04T00:00:18.666Z,16.73
2018-11-04T00:02:48.190Z,16.20
2018-11-04T00:05:17.460Z,15.50
2018-11-04T00:07:47.488Z,15.50
2018-11-04T00:10:16.329Z,14.50
2018-11-04T00:12:45.529Z,15.23
2018-11-04T00:15:14.681Z,14.97
2018-11-04T00:17:43.443Z,14.27
2018-11-04T00:20:14.210Z,14.03
2018-11-04T00:22:43.806Z,15.47
2018-11-04T00:25:14.030Z,14.87
2018-11-04T00:27:43.631Z,14.43
2018-11-04T00:30:18.374Z,15.43
2018-11-04T00:32:47.016Z,13.87
2018-11-04T00:35:15.507Z,12.53
2018-11-04T00:37:44.195Z,12.83
2018-11-04T00:40:12.994Z,13.10
2018-11-04T00:45:16.332Z,13.17
2018-11-04T00:47:44.799Z,12.90
2018-11-04T00:50:15.180Z,12.87
2018-11-04T00:52:44.206Z,13.43
2018-11-04T00:55:13.931Z,13.27
2018-11-04T00:57:42.816Z,12.33
2018-11-04T01:00:16.388Z,12.50
2018-11-04T01:02:45.985Z,12.83
2018-11-04T01:05:14.572Z,12.60
2018-11-04T01:07:43.088Z,12.90
2018-11-04T01:10:12.610Z,12.57
2018-11-04T01:12:42.446Z,14.27
2018-11-04T01:15:13.092Z,13.33
2018-11-04T01:17:42.458Z,13.27
2018-11-04T01:20:14.043Z,12.57
2018-11-04T01:25:17.677Z,12.83
2018-11-04T01:27:46.226Z,13.53
2018-11-04T01:30:17.608Z,13.83
2018-11-04T01:32:46.277Z,13.57
2018-11-04T01:35:14.956Z,12.97
2018-11-04T01:37:43.435Z,14.10
2018-11-04T01:40:12.039Z,14.90
2018-11-04T01:42:40.754Z,13.70
2018-11-04T01:45:11.255Z,14.40
2018-11-04T01:47:39.976Z,14.27
2018-11-04T01:50:10.969Z,16.07
2018-11-04T01:52:39.404Z,15.43
2018-11-04T01:55:09.513Z,14.53
2018-11-04T01:57:38.813Z,14.37
2018-11-04T02:00:11.601Z,15.08
2018-11-04T02:02:40.196Z,15.50
2018-11-04T02:05:10.614Z,14.23
2018-11-04T02:07:39.144Z,15.37
2018-11-04T02:10:09.017Z,15.77
2018-11-04T02:12:37.515Z,14.93
2018-11-04T02:15:08.534Z,15.58
2018-11-04T02:17:38.039Z,15.87
2018-11-04T02:20:08.253Z,15.05
2018-11-04T02:22:36.657Z,16.27
2018-11-04T02:25:05.739Z,15.73
2018-11-04T02:27:34.937Z,15.53
2018-11-04T02:30:03.815Z,15.83
2018-11-04T02:32:33.374Z,15.07
2018-11-04T02:35:01.887Z,16.33
2018-11-04T02:37:30.400Z,16.60
2018-11-04T02:39:59.092Z,16.03
2018-11-04T02:42:28.272Z,16.07
2018-11-04T02:44:56.854Z,16.13
2018-11-04T02:47:25.754Z,17.87
2018-11-04T02:49:54.900Z,16.57
2018-11-04T02:52:23.574Z,15.67
2018-11-04T02:54:52.108Z,16.00
2018-11-04T02:57:20.891Z,16.73
2018-11-04T02:59:49.583Z,17.17
2018-11-04T03:02:18.165Z,16.53
2018-11-04T03:04:46.769Z,16.87
2018-11-04T03:07:15.261Z,15.90
2018-11-04T03:09:44.521Z,15.67
2018-11-04T03:12:13.434Z,16.50
2018-11-04T03:14:41.931Z,16.53
2018-11-04T03:17:10.492Z,17.30
2018-11-04T03:19:40.129Z,17.40
2018-11-04T03:22:09.240Z,17.30
2018-11-04T03:24:38.183Z,17.07
2018-11-04T03:27:06.837Z,18.17
2018-11-04T03:29:36.231Z,17.27
2018-11-04T03:32:04.879Z,17.67
2018-11-04T03:34:33.492Z,17.10
2018-11-04T03:37:02.085Z,17.33
2018-11-04T03:39:30.488Z,17.27
2018-11-04T03:41:59.120Z,16.97
2018-11-04T03:44:27.643Z,17.03
2018-11-04T03:46:56.438Z,17.67
2018-11-04T03:49:24.898Z,18.33
2018-11-04T03:51:53.384Z,17.90
2018-11-04T03:54:22.022Z,17.73
2018-11-04T03:56:50.553Z,17.43
2018-11-04T03:59:19.109Z,17.87
2018-11-04T04:01:47.668Z,18.20
2018-11-04T04:04:16.325Z,17.20
2018-11-04T04:06:44.754Z,18.13
2018-11-04T04:09:14.663Z,17.83
2018-11-04T04:11:43.062Z,17.97
2018-11-04T04:14:11.488Z,17.03
2018-11-04T04:16:40.124Z,19.23
2018-11-04T04:19:09.232Z,16.77
2018-11-04T04:21:37.657Z,18.43
2018-11-04T04:24:06.438Z,17.97
2018-11-04T04:26:34.978Z,18.70
2018-11-04T04:29:03.515Z,18.40
2018-11-04T04:31:31.955Z,19.70
2018-11-04T04:34:05.864Z,19.30
2018-11-04T04:36:34.293Z,19.57
2018-11-04T04:39:06.897Z,20.27
2018-11-04T04:41:35.340Z,20.50
2018-11-04T04:44:03.903Z,19.27
2018-11-04T04:46:32.313Z,19.67
2018-11-04T04:49:01.175Z,21.07
2018-11-04T04:51:29.763Z,18.27
2018-11-04T04:53:58.421Z,20.47
2018-11-04T04:56:27.877Z,19.20
2018-11-04T04:58:56.430Z,19.93
2018-11-04T05:01:25.217Z,19.70
2018-11-04T05:04:00.149Z,19.47
2018-11-04T05:06:28.540Z,20.23
2018-11-04T05:08:57.381Z,18.03
2018-11-04T05:11:26.278Z,20.40
2018-11-04T05:13:56.565Z,19.60
2018-11-04T05:16:25.297Z,20.17
2018-11-04T05:18:53.861Z,18.17
2018-11-04T05:21:22.310Z,18.57
2018-11-04T05:23:50.772Z,19.27
2018-11-04T05:26:19.610Z,20.07
2018-11-04T05:28:48.188Z,19.03
2018-11-04T05:31:16.857Z,20.13
2018-11-04T05:33:45.368Z,20.93
2018-11-04T05:36:13.875Z,21.33
2018-11-04T05:38:42.494Z,20.63
2018-11-04T05:41:10.902Z,18.87
2018-11-04T05:43:39.319Z,19.83
2018-11-04T05:46:08.138Z,20.20
2018-11-04T05:48:36.540Z,21.70
2018-11-04T05:51:05.218Z,20.20
2018-11-04T05:53:33.945Z,19.07
2018-11-04T05:56:05.318Z,21.57
2018-11-04T05:58:33.837Z,20.10
2018-11-04T06:01:02.521Z,19.97
2018-11-04T06:03:31.013Z,20.60
2018-11-04T06:05:59.520Z,22.40
2018-11-04T06:08:27.942Z,21.10
2018-11-04T06:10:56.368Z,21.50
2018-11-04T06:13:25.550Z,21.97
2018-11-04T06:15:54.093Z,19.70
2018-11-04T06:18:23.441Z,21.00
2018-11-04T06:20:51.881Z,20.13
2018-11-04T06:23:20.576Z,21.83
2018-11-04T06:25:49.261Z,20.20
2018-11-04T06:28:18.421Z,21.53
2018-11-04T06:30:46.828Z,19.47
2018-11-04T06:33:15.336Z,20.80
2018-11-04T06:35:43.865Z,20.27
2018-11-04T06:38:12.965Z,19.17
2018-11-04T06:40:41.466Z,19.10
2018-11-04T06:43:11.047Z,19.83
2018-11-04T06:45:39.530Z,20.83
2018-11-04T06:48:08.049Z,19.80
2018-11-04T07:10:45.123Z,20.50
2018-11-04T07:13:13.570Z,20.23
2018-11-04T07:15:42.343Z,20.33
2018-11-04T07:18:10.774Z,21.23
2018-11-04T07:20:39.259Z,20.77
2018-11-04T07:23:07.811Z,21.93
2018-11-04T07:25:36.261Z,20.80
2018-11-04T07:28:05.012Z,21.03
2018-11-04T07:30:33.460Z,21.27
2018-11-04T07:33:01.855Z,19.80
2018-11-04T07:35:30.372Z,21.00
2018-11-04T07:37:58.775Z,20.60
2018-11-04T07:40:27.953Z,20.93
2018-11-04T07:42:56.418Z,21.67
2018-11-04T07:45:25.109Z,21.57
2018-11-04T07:47:53.674Z,21.40
2018-11-04T07:50:23.119Z,21.40
2018-11-04T07:52:51.688Z,22.10
2018-11-04T07:55:20.370Z,22.77
2018-11-04T07:57:49.043Z,20.87
2018-11-04T08:00:17.516Z,22.03
2018-11-04T08:02:46.141Z,21.73
2018-11-04T08:05:14.757Z,23.07
2018-11-04T08:07:43.362Z,22.63
2018-11-04T08:10:12.957Z,21.73
2018-11-04T08:12:41.603Z,21.87
2018-11-04T08:15:11.068Z,23.63
2018-11-04T08:17:40.398Z,23.47
2018-11-04T08:20:09.584Z,23.47
2018-11-04T08:22:38.733Z,22.63
2018-11-04T08:25:07.301Z,23.40
2018-11-04T08:27:36.750Z,22.10
2018-11-04T08:30:06.918Z,22.30
2018-11-04T08:32:35.521Z,21.57
2018-11-04T08:35:07.869Z,21.83
2018-11-04T08:37:36.492Z,21.73
2018-11-04T08:40:05.426Z,22.93
2018-11-04T08:42:33.822Z,22.70
2018-11-04T08:45:02.379Z,22.40
2018-11-04T08:47:31.121Z,23.40
2018-11-04T08:50:00.325Z,21.60
2018-11-04T08:52:28.899Z,21.87
2018-11-04T08:54:57.680Z,21.00
2018-11-04T08:57:26.267Z,22.40
2018-11-04T09:02:29.358Z,22.90
2018-11-04T09:05:01.653Z,23.60
2018-11-04T09:07:30.351Z,23.23
2018-11-04T09:10:02.493Z,22.60
2018-11-04T09:12:31.399Z,23.03
2018-11-04T09:15:00.044Z,22.53
2018-11-04T09:17:28.586Z,23.30
2018-11-04T09:19:58.192Z,23.03
2018-11-04T09:22:26.868Z,23.13
2018-11-04T09:27:30.561Z,22.60
2018-11-04T09:29:59.694Z,22.60
2018-11-04T09:32:28.794Z,23.83
2018-11-04T09:34:57.388Z,22.90
2018-11-04T09:37:25.816Z,23.37
2018-11-04T09:39:54.463Z,21.83
2018-11-04T09:42:23.116Z,22.87
2018-11-04T09:44:51.726Z,23.57
2018-11-04T09:47:20.264Z,22.13
2018-11-04T09:49:55.409Z,23.50
2018-11-04T09:52:23.893Z,24.60
2018-11-04T09:54:52.453Z,22.67
2018-11-04T09:57:24.797Z,23.00
2018-11-04T09:59:53.925Z,23.73
2018-11-04T10:02:22.591Z,25.23
2018-11-04T10:04:51.784Z,23.50
2018-11-04T10:07:20.359Z,23.37
2018-11-04T10:09:48.932Z,22.60
2018-11-04T10:12:17.883Z,24.03
2018-11-04T10:14:46.417Z,24.23
2018-11-04T10:17:15.690Z,22.90
2018-11-04T10:19:44.404Z,24.03
2018-11-04T10:22:12.905Z,23.57
2018-11-04T10:24:41.488Z,25.67
2018-11-04T10:27:09.970Z,23.87
2018-11-04T10:29:38.611Z,23.47
2018-11-04T10:32:07.241Z,22.17
2018-11-04T10:34:35.787Z,22.67
2018-11-04T10:37:04.354Z,24.43
2018-11-04T10:39:33.069Z,26.50
2018-11-04T10:42:01.661Z,23.47
2018-11-04T10:44:30.251Z,24.63
2018-11-04T10:46:58.894Z,24.67
2018-11-04T10:49:27.461Z,23.83
2018-11-04T10:51:56.052Z,24.80
2018-11-04T10:54:25.579Z,23.73
2018-11-04T10:56:54.334Z,24.03
2018-11-04T10:59:23.564Z,25.00
2018-11-04T11:01:52.008Z,25.03
2018-11-04T11:04:21.575Z,26.73
2018-11-04T11:06:50.079Z,26.60
2018-11-04T11:09:18.722Z,26.17
2018-11-04T11:11:47.308Z,26.90
2018-11-04T11:14:16.591Z,26.20
2018-11-04T11:16:45.463Z,25.83
2018-11-04T11:19:14.142Z,26.40
2018-11-04T11:21:42.789Z,25.23
2018-11-04T11:24:11.265Z,25.33
2018-11-04T11:26:40.069Z,25.53
2018-11-04T11:29:08.754Z,26.77
2018-11-04T11:31:37.213Z,26.53
2018-11-04T11:34:06.025Z,25.53
2018-11-04T11:36:34.982Z,25.13
2018-11-04T11:39:03.753Z,25.00
2018-11-04T11:41:33.601Z,25.33
2018-11-04T11:44:02.841Z,25.83
2018-11-04T11:46:31.425Z,25.20
2018-11-04T11:49:00.305Z,25.60
2018-11-04T11:51:29.157Z,25.00
2018-11-04T11:53:57.853Z,25.07
2018-11-04T11:56:27.664Z,26.23
2018-11-04T11:58:57.076Z,24.43
2018-11-04T12:01:25.790Z,23.80
2018-11-04T12:03:54.372Z,24.47
2018-11-04T12:06:22.962Z,23.60
2018-11-04T12:08:51.639Z,25.20
2018-11-04T12:11:20.129Z,24.33
2018-11-04T12:13:48.795Z,23.70
2018-11-04T12:16:17.940Z,23.53
2018-11-04T12:18:46.550Z,23.57
2018-11-04T12:21:15.192Z,23.33
2018-11-04T12:23:43.864Z,23.93
2018-11-04T12:26:12.761Z,24.80
2018-11-04T12:28:41.364Z,22.90
2018-11-04T12:31:09.834Z,24.83
2018-11-04T12:33:39.006Z,23.27
2018-11-04T12:36:07.741Z,24.33
2018-11-04T12:38:36.588Z,23.93
2018-11-04T12:41:05.674Z,23.27
2018-11-04T12:43:34.835Z,24.30
2018-11-04T12:46:03.805Z,25.20
2018-11-04T12:48:39.229Z,24.93
2018-11-04T12:51:13.652Z,24.97
2018-11-04T12:53:42.410Z,24.03
2018-11-04T12:56:11.008Z,22.80
2018-11-04T12:58:39.716Z,23.57
2018-11-04T13:01:09.188Z,22.87
2018-11-04T13:03:37.782Z,24.20
2018-11-04T13:06:06.703Z,24.37
2018-11-04T13:08:35.326Z,23.60
2018-11-04T13:11:03.826Z,24.90
2018-11-04T13:13:32.746Z,23.57
2018-11-04T13:16:01.291Z,24.13
2018-11-04T13:18:29.867Z,24.73
2018-11-04T13:20:58.450Z,23.37
2018-11-04T13:23:26.985Z,22.10
2018-11-04T13:25:56.195Z,22.87
2018-11-04T13:28:25.082Z,23.17
2018-11-04T13:30:53.663Z,23.57
2018-11-04T13:33:22.449Z,23.87
2018-11-04T13:35:50.922Z,23.43
2018-11-04T13:38:19.654Z,22.90
2018-11-04T13:40:54.688Z,22.27
2018-11-04T13:43:23.640Z,22.45
2018-11-04T13:45:52.173Z,24.03
2018-11-04T13:48:21.022Z,23.67
2018-11-04T13:50:49.649Z,22.27
2018-11-04T13:53:18.417Z,22.63
2018-11-04T13:55:47.057Z,23.77
2018-11-04T13:58:15.620Z,23.90
2018-11-04T14:00:44.126Z,22.33
2018-11-04T14:03:12.652Z,22.73
2018-11-04T14:05:41.401Z,24.27
2018-11-04T14:08:10.083Z,45.40
2018-11-04T14:10:39.365Z,54.03
2018-11-04T14:13:07.917Z,53.90
2018-11-04T14:15:38.342Z,57.30
2018-11-04T14:18:06.933Z,38.27
2018-11-04T14:20:35.875Z,25.67
2018-11-04T14:23:04.391Z,23.23
2018-11-04T14:25:36.247Z,23.80
2018-11-04T14:28:05.216Z,24.33
2018-11-04T14:30:33.825Z,26.87
2018-11-04T14:33:02.524Z,26.30
2018-11-04T14:35:31.320Z,23.40
2018-11-04T14:37:59.958Z,25.20
2018-11-04T14:40:32.387Z,25.97
2018-11-04T14:43:01.052Z,25.10
2018-11-04T14:45:29.657Z,25.33
2018-11-04T14:48:05.507Z,25.00
2018-11-04T14:50:34.300Z,26.43
2018-11-04T14:53:03.014Z,26.03
2018-11-04T14:55:31.620Z,25.70
2018-11-04T14:58:00.239Z,26.63
2018-11-04T15:00:33.404Z,25.30
2018-11-04T15:03:03.640Z,25.83
2018-11-04T15:05:32.481Z,25.80
2018-11-04T15:08:00.961Z,26.00
2018-11-04T15:10:29.509Z,25.37
2018-11-04T15:12:58.031Z,25.73
2018-11-04T15:15:26.685Z,26.30
2018-11-04T15:17:55.398Z,23.90
2018-11-04T15:20:24.036Z,24.70
2018-11-04T15:22:53.352Z,27.27
2018-11-04T15:25:22.889Z,26.40
2018-11-04T15:27:51.655Z,26.03
2018-11-04T15:30:20.428Z,26.97
2018-11-04T15:32:49.251Z,26.37
2018-11-04T15:35:18.499Z,26.13
2018-11-04T15:37:47.131Z,25.33
2018-11-04T15:40:17.646Z,27.33
2018-11-04T15:42:47.168Z,26.33
2018-11-04T15:45:16.455Z,25.67
2018-11-04T15:47:45.279Z,28.73
2018-11-04T15:50:15.565Z,26.15
2018-11-04T15:52:44.049Z,26.33
2018-11-04T15:55:12.668Z,25.67
2018-11-04T15:57:41.602Z,28.60
2018-11-04T16:00:13.441Z,26.83
2018-11-04T16:02:42.780Z,28.00
2018-11-04T16:07:45.846Z,25.37
2018-11-04T16:10:15.893Z,27.70
2018-11-04T16:12:44.641Z,29.07
2018-11-04T16:15:14.714Z,26.90
2018-11-04T16:17:43.949Z,28.40
2018-11-04T16:20:13.982Z,26.10
2018-11-04T16:22:43.327Z,28.00
2018-11-04T16:25:12.611Z,28.87
2018-11-04T16:27:41.642Z,28.93
2018-11-04T16:30:11.746Z,28.23
2018-11-04T16:32:41.222Z,28.37
2018-11-04T16:35:11.410Z,27.40
2018-11-04T16:37:41.575Z,27.37
2018-11-04T16:40:10.715Z,29.93
2018-11-04T16:42:39.556Z,33.73
2018-11-04T16:45:16.792Z,27.80
2018-11-04T16:47:45.492Z,27.90
2018-11-04T16:50:15.410Z,28.17
2018-11-04T16:52:45.337Z,26.57
2018-11-04T16:55:14.265Z,28.43
2018-11-04T16:57:43.382Z,30.17
2018-11-04T17:00:12.619Z,28.13
2018-11-04T17:02:41.178Z,25.83
2018-11-04T17:05:11.177Z,26.47
2018-11-04T17:07:39.988Z,25.87
2018-11-04T17:10:09.107Z,26.07
2018-11-04T17:12:37.869Z,26.17
2018-11-04T17:15:08.807Z,27.52
2018-11-04T17:17:37.320Z,27.47
2018-11-04T17:25:01.312Z,27.80
2018-11-04T17:27:33.494Z,27.43
2018-11-04T17:30:02.317Z,26.97
2018-11-04T17:35:05.153Z,29.13
2018-11-04T17:37:33.899Z,28.90
2018-11-04T17:40:02.788Z,29.60
2018-11-04T17:49:59.107Z,25.37
2018-11-04T17:52:28.288Z,25.20
2018-11-04T17:54:56.977Z,26.93
2018-11-04T17:57:25.725Z,27.87
2018-11-04T17:59:55.129Z,26.80
2018-11-04T18:02:23.917Z,28.67
2018-11-04T18:04:52.689Z,27.47
2018-11-04T18:07:21.192Z,28.90
2018-11-04T18:09:49.692Z,26.07
2018-11-04T18:12:19.108Z,26.00
2018-11-04T18:14:47.642Z,27.27
2018-11-04T18:17:16.286Z,26.47
2018-11-04T18:19:44.989Z,26.13
2018-11-04T18:22:13.651Z,27.40
2018-11-04T18:24:44.884Z,27.67
2018-11-04T18:27:13.344Z,27.60
2018-11-04T18:29:42.792Z,27.77
2018-11-04T18:32:13.915Z,26.40
2018-11-04T18:34:43.117Z,25.90
2018-11-04T18:37:11.761Z,26.63
2018-11-04T18:39:41.000Z,27.37
2018-11-04T18:42:09.734Z,25.70
2018-11-04T18:44:38.657Z,27.57
2018-11-04T18:47:07.684Z,27.33
2018-11-04T18:49:36.233Z,27.30
2018-11-04T18:52:05.231Z,27.83
2018-11-04T18:54:34.720Z,96.03
2018-11-04T18:57:04.331Z,80.60
2018-11-04T18:59:33.334Z,39.77
2018-11-04T19:02:02.543Z,31.37
2018-11-04T19:04:31.334Z,28.97
2018-11-04T19:07:00.061Z,27.20
2018-11-04T19:09:29.302Z,39.37
2018-11-04T19:11:58.095Z,25.87
2018-11-04T19:14:27.756Z,24.17
2018-11-04T19:16:56.718Z,24.07
2018-11-04T19:19:25.952Z,23.83
2018-11-04T19:21:55.398Z,24.23
2018-11-04T19:24:24.357Z,25.50
2018-11-04T19:26:53.091Z,24.60
2018-11-04T19:29:21.735Z,23.67
2018-11-04T19:31:51.481Z,24.80
2018-11-04T19:34:20.482Z,25.47
2018-11-04T19:39:23.512Z,24.77
2018-11-04T19:44:26.791Z,22.73
2018-11-04T19:46:55.303Z,23.30
2018-11-04T19:49:26.108Z,23.77
2018-11-04T19:52:06.397Z,24.00
2018-11-04T19:54:36.907Z,23.33
2018-11-04T19:57:05.714Z,22.40
2018-11-04T19:59:34.397Z,24.27
2018-11-04T20:02:03.171Z,22.83
2018-11-04T20:04:31.748Z,22.87
2018-11-04T20:07:00.241Z,23.60
2018-11-04T20:09:28.897Z,23.07
2018-11-04T20:11:58.302Z,22.10
2018-11-04T20:14:26.964Z,22.37
2018-11-04T20:16:55.600Z,22.10
2018-11-04T20:19:31.742Z,22.83
2018-11-04T20:22:00.220Z,21.73
2018-11-04T20:24:34.099Z,22.33
2018-11-04T20:27:02.678Z,21.27
2018-11-04T20:29:31.237Z,21.90
2018-11-04T20:32:05.311Z,23.60
2018-11-04T20:34:34.104Z,22.83
2018-11-04T20:37:02.885Z,22.50
2018-11-04T20:39:37.519Z,21.47
2018-11-04T20:42:06.582Z,23.47
2018-11-04T20:44:39.295Z,23.63
2018-11-04T20:47:07.949Z,21.97
2018-11-04T20:49:41.854Z,23.60
2018-11-04T20:52:10.696Z,23.87
2018-11-04T20:54:39.408Z,21.93
2018-11-04T20:57:13.080Z,22.13
2018-11-04T20:59:42.000Z,21.13
2018-11-04T21:02:10.973Z,22.30
2018-11-04T21:04:39.746Z,22.87
2018-11-04T21:07:09.232Z,21.57
2018-11-04T21:09:38.075Z,22.10
2018-11-04T21:12:07.224Z,23.37
2018-11-04T21:14:36.958Z,23.97
2018-11-04T21:17:05.882Z,22.77
2018-11-04T21:19:34.777Z,22.30
2018-11-04T21:22:03.410Z,20.23
2018-11-04T21:24:32.561Z,22.93
2018-11-04T21:27:01.207Z,22.30
2018-11-04T21:29:30.462Z,19.93
2018-11-04T21:31:58.653Z,22.33
2018-11-04T21:34:27.446Z,20.30
2018-11-04T21:36:55.932Z,22.37
2018-11-04T21:39:24.513Z,22.07
2018-11-04T21:41:56.074Z,22.93
2018-11-04T21:44:24.702Z,21.77
2018-11-04T21:46:53.386Z,19.70
2018-11-04T21:49:22.183Z,19.97
2018-11-04T21:51:51.554Z,21.37
2018-11-04T21:54:20.179Z,21.37
2018-11-04T21:56:49.113Z,19.33
2018-11-04T21:59:17.664Z,19.90
2018-11-04T22:01:46.245Z,19.90
2018-11-04T22:04:15.015Z,19.73
2018-11-04T22:06:44.148Z,18.47
2018-11-04T22:11:46.984Z,19.67
2018-11-04T22:14:15.736Z,19.67
2018-11-04T22:16:44.474Z,17.97
2018-11-04T22:19:13.069Z,18.13
2018-11-04T22:21:42.095Z,17.67
2018-11-04T22:24:10.649Z,16.73
2018-11-04T22:26:39.366Z,16.77
2018-11-04T22:29:08.374Z,17.03
2018-11-04T22:31:37.898Z,18.33
2018-11-04T22:34:07.335Z,18.13
2018-11-04T22:36:36.329Z,17.07
2018-11-04T22:39:06.614Z,17.90
2018-11-04T22:41:35.133Z,17.53
2018-11-04T22:44:04.757Z,19.43
2018-11-04T22:46:33.562Z,16.80
2018-11-04T22:49:02.965Z,17.53
2018-11-04T22:51:31.677Z,18.10
2018-11-04T22:54:00.462Z,18.73
2018-11-04T22:56:29.072Z,19.07
2018-11-04T22:58:57.805Z,18.67
2018-11-04T23:01:26.499Z,18.10
2018-11-04T23:03:55.065Z,17.87
2018-11-04T23:06:23.877Z,18.17
2018-11-04T23:08:52.472Z,18.17
2018-11-04T23:11:21.757Z,17.20
2018-11-04T23:13:50.320Z,20.03
2018-11-04T23:16:18.923Z,17.83
2018-11-04T23:18:47.544Z,17.97
2018-11-04T23:21:15.983Z,16.00
2018-11-04T23:23:44.462Z,17.23
2018-11-04T23:26:13.157Z,16.80
2018-11-04T23:28:42.806Z,18.00
2018-11-04T23:31:11.348Z,18.20
2018-11-04T23:33:39.826Z,18.10
2018-11-04T23:36:09.316Z,18.07
2018-11-04T23:38:37.954Z,16.37
2018-11-04T23:41:06.930Z,17.97
2018-11-04T23:43:36.228Z,17.33
2018-11-04T23:46:05.252Z,17.67
2018-11-04T23:48:33.784Z,16.70
2018-11-04T23:51:02.270Z,16.70
2018-11-04T23:53:31.231Z,17.27
2018-11-04T23:56:00.483Z,17.05
2018-11-04T23:58:29.037Z,16.97
